Time;durP1;ratioP1;P1;durP2;ratioP2;P2;SDS_P1;SDS_P2;PMS_P1;PMS_P2;Temp;Humidity;BMP_temperature;BMP_pressure;BME280_temperature;BME280_humidity;BME280_pressure;Samples;Min_cycle;Max_cycle;Signal;HPM_P1;HPM_P2
2022/12/04 00:01:28;;;;;;;7.50;6.70;;;10.00;1.00;;;;;;5017989;28;20076;-64
2022/12/04 00:03:56;;;;;;;9.90;7.07;;;9.70;6.50;;;;;;5032456;28;20039;-64
2022/12/04 00:06:22;;;;;;;8.52;7.07;;;9.80;8.00;;;;;;5031415;28;20510;-65
2022/12/04 00:08:48;;;;;;;7.85;7.05;;;9.80;6.70;;;;;;5012478;28;20104;-65
2022/12/04 00:11:20;;;;;;;8.88;7.53;;;9.80;6.70;;;;;;5010150;28;20026;-65
2022/12/04 00:13:46;;;;;;;8.43;7.50;;;9.90;7.20;;;;;;5025661;28;20032;-65
2022/12/04 00:16:15;;;;;;;8.70;7.80;;;9.80;5.20;;;;;;5028592;28;20029;-64
2022/12/04 00:18:41;;;;;;;9.45;7.97;;;9.80;6.70;;;;;;5009607;28;20026;-65
2022/12/04 00:21:09;;;;;;;8.27;7.45;;;9.80;5.30;;;;;;5019096;28;20242;-65
2022/12/04 00:23:36;;;;;;;10.43;8.48;;;9.80;9.00;;;;;;5021733;28;20071;-65
2022/12/04 00:26:10;;;;;;;14.30;10.10;;;9.80;8.00;;;;;;5021226;28;20022;-64
2022/12/04 00:28:36;;;;;;;12.02;9.75;;;9.80;11.20;;;;;;5030362;28;20388;-65
2022/12/04 00:31:10;;;;;;;10.32;8.98;;;9.70;5.10;;;;;;5017360;28;20033;-65
2022/12/04 00:33:37;;;;;;;13.82;11.48;;;9.70;9.60;;;;;;5029203;28;20467;-65
2022/12/04 00:36:08;;;;;;;13.98;11.30;;;9.80;99.90;;;;;;5026327;28;20176;-65
2022/12/04 00:38:34;;;;;;;12.15;10.32;;;9.90;99.90;;;;;;5014651;28;20017;-65
2022/12/04 00:41:00;;;;;;;12.48;11.02;;;9.90;99.90;;;;;;5017226;28;20121;-64
2022/12/04 00:43:27;;;;;;;11.73;9.48;;;9.90;99.90;;;;;;5010495;28;20455;-65
2022/12/04 00:45:53;;;;;;;11.80;9.32;;;9.90;99.90;;;;;;5031867;28;20045;-65
2022/12/04 00:48:18;;;;;;;12.90;9.93;;;9.90;99.90;;;;;;5020015;28;20057;-64
2022/12/04 00:50:44;;;;;;;10.88;9.60;;;9.90;99.90;;;;;;5027096;28;20510;-65
2022/12/04 00:53:10;;;;;;;11.27;9.93;;;9.90;99.90;;;;;;5022264;28;20026;-64
2022/12/04 00:55:40;;;;;;;11.57;9.77;;;9.90;99.90;;;;;;5027352;28;20018;-65
2022/12/04 00:58:06;;;;;;;12.70;10.05;;;9.90;99.90;;;;;;5031559;28;20029;-64
2022/12/04 01:00:33;;;;;;;10.32;8.65;;;9.90;99.90;;;;;;5031489;28;20018;-64
2022/12/04 01:02:59;;;;;;;10.95;8.75;;;9.90;99.90;;;;;;5031759;28;20038;-64
2022/12/04 01:16:06;;;;;;;8.37;6.97;;;9.90;99.90;;;;;;5003991;28;20076;-64
2022/12/04 01:18:31;;;;;;;11.45;8.90;;;9.70;99.90;;;;;;5017385;28;20025;-65
2022/12/04 01:20:57;;;;;;;8.65;7.75;;;9.90;99.90;;;;;;5031415;28;20021;-64
2022/12/04 01:23:22;;;;;;;9.20;8.25;;;9.90;93.60;;;;;;5019214;28;20021;-65
2022/12/04 01:25:53;;;;;;;9.40;8.05;;;9.80;57.00;;;;;;5035305;28;20448;-64
2022/12/04 01:28:19;;;;;;;8.80;7.43;;;9.90;51.50;;;;;;5015796;28;20048;-64
2022/12/04 01:30:54;;;;;;;8.77;7.45;;;9.80;31.00;;;;;;5016525;28;20053;-64
2022/12/04 01:33:20;;;;;;;10.00;7.60;;;9.90;21.00;;;;;;5020049;28;20431;-65
2022/12/04 01:35:52;;;;;;;10.18;7.75;;;9.90;12.00;;;;;;5015123;28;20100;-65
2022/12/04 01:38:17;;;;;;;10.63;8.93;;;9.90;12.30;;;;;;5015270;28;20030;-64
2022/12/04 01:40:43;;;;;;;9.25;7.70;;;9.90;4.90;;;;;;5015360;28;20021;-65
2022/12/04 01:43:11;;;;;;;10.32;8.43;;;9.90;3.90;;;;;;5007105;28;20495;-64
2022/12/04 01:45:43;;;;;;;9.98;8.27;;;9.90;4.50;;;;;;5010524;28;20032;-64
2022/12/04 01:48:31;;;;;;;10.25;8.93;;;10.00;4.10;;;;;;5028005;28;20038;-64
2022/12/04 01:51:06;;;;;;;8.73;7.05;;;9.90;7.70;;;;;;5028808;28;20041;-64
2022/12/04 01:53:33;;;;;;;;;;;9.90;4.40;;;;;;5024055;28;20025;-65
2022/12/04 01:56:02;;;;;;;10.50;8.63;;;9.90;9.50;;;;;;5034854;28;20031;-65
2022/12/04 01:58:32;;;;;;;9.45;8.10;;;9.90;1.00;;;;;;5034795;28;20075;-65
2022/12/04 02:01:02;;;;;;;11.15;8.90;;;9.90;1.00;;;;;;5000822;28;20396;-65
2022/12/04 02:03:28;;;;;;;10.30;8.63;;;9.80;1.00;;;;;;5021392;28;20471;-65
2022/12/04 02:05:54;;;;;;;10.45;8.35;;;9.90;1.00;;;;;;5033958;28;20079;-65
2022/12/04 02:08:20;;;;;;;8.93;8.02;;;9.90;1.00;;;;;;5034034;28;20535;-65
2022/12/04 02:11:03;;;;;;;9.65;8.38;;;9.70;1.00;;;;;;5025206;28;20018;-67
2022/12/04 02:14:00;;;;;;;9.60;8.60;;;9.90;7.40;;;;;;5020292;28;20388;-65
2022/12/04 02:16:58;;;;;;;11.40;8.45;;;9.90;14.80;;;;;;5001745;28;20027;-65
2022/12/04 02:19:51;;;;;;;11.50;8.38;;;9.90;14.30;;;;;;5034393;28;20395;-66
2022/12/04 02:22:42;;;;;;;8.68;7.55;;;9.80;10.20;;;;;;5018802;28;20030;-66
2022/12/04 02:25:45;;;;;;;8.65;7.15;;;9.90;9.40;;;;;;5034373;28;20037;-65
2022/12/04 02:28:26;;;;;;;9.80;7.93;;;9.90;10.10;;;;;;5034222;28;20038;-65
2022/12/04 02:30:57;;;;;;;10.20;7.93;;;9.90;8.80;;;;;;5029385;28;20038;-64
2022/12/04 02:33:37;;;;;;;10.18;8.15;;;9.90;5.50;;;;;;5019615;28;20030;-65
2022/12/04 02:36:15;;;;;;;11.63;9.25;;;9.80;4.20;;;;;;5015029;28;20021;-65
2022/12/04 02:38:47;;;;;;;10.15;8.23;;;9.80;7.40;;;;;;5028294;28;20064;-64
2022/12/04 02:41:21;;;;;;;12.80;9.60;;;9.90;3.50;;;;;;5013785;28;20022;-64
2022/12/04 02:44:00;;;;;;;11.88;9.60;;;10.00;4.80;;;;;;5014581;28;20026;-64
2022/12/04 02:46:47;;;;;;;11.45;9.20;;;10.00;5.70;;;;;;5014579;28;20048;-64
2022/12/04 02:49:29;;;;;;;13.48;9.90;;;9.90;9.40;;;;;;5017196;28;20131;-64
2022/12/04 02:51:57;;;;;;;10.20;9.13;;;9.80;7.90;;;;;;5009827;28;20071;-66
2022/12/04 02:54:35;;;;;;;12.05;9.88;;;9.70;4.90;;;;;;5021128;28;20483;-64
2022/12/04 02:57:03;;;;;;;11.68;9.38;;;9.70;39.80;;;;;;5016080;28;20441;-64
2022/12/04 02:59:38;;;;;;;11.00;9.82;;;9.70;35.80;;;;;;5015386;28;20423;-65
2022/12/04 03:02:12;;;;;;;14.00;10.73;;;9.90;99.90;;;;;;5032237;28;20037;-64
2022/12/04 03:04:38;;;;;;;12.10;9.98;;;10.10;99.90;;;;;;5020868;28;20478;-65
2022/12/04 03:07:19;;;;;;;11.57;9.20;;;10.10;99.90;;;;;;5024896;28;20025;-65
2022/12/04 03:09:49;;;;;;;10.43;8.55;;;10.10;99.90;;;;;;5019610;28;20053;-65
2022/12/04 03:12:37;;;;;;;10.13;8.93;;;10.00;99.90;;;;;;5031970;28;20468;-65
2022/12/04 03:15:26;;;;;;;9.52;8.52;;;10.00;99.90;;;;;;5006765;28;20037;-65
2022/12/04 03:17:59;;;;;;;10.38;8.82;;;9.80;99.90;;;;;;5032924;28;20037;-66
2022/12/04 03:20:25;;;;;;;11.10;8.95;;;9.60;99.90;;;;;;5025210;28;20409;-65
2022/12/04 03:23:07;;;;;;;11.40;9.52;;;9.60;99.90;;;;;;5027729;28;20100;-65
2022/12/04 03:25:41;;;;;;;14.35;11.20;;;9.90;99.90;;;;;;5033253;28;20026;-65
2022/12/04 03:28:14;;;;;;;11.93;9.38;;;10.10;99.90;;;;;;5027268;28;20048;-65
2022/12/04 03:30:48;;;;;;;15.52;10.77;;;9.80;99.90;;;;;;5025014;28;20068;-65
2022/12/04 03:33:22;;;;;;;13.35;9.98;;;10.00;99.90;;;;;;5048344;28;20095;-65
2022/12/04 03:36:08;;;;;;;14.18;9.90;;;10.10;99.90;;;;;;5033095;28;20048;-65
2022/12/04 03:38:53;;;;;;;9.98;8.90;;;10.20;99.90;;;;;;5032985;28;20454;-65
2022/12/04 03:41:45;;;;;;;11.85;8.70;;;10.10;99.90;;;;;;5031711;28;20071;-65
2022/12/04 03:44:19;;;;;;;14.52;9.77;;;10.20;99.90;;;;;;5021758;28;20031;-65
2022/12/04 03:47:05;;;;;;;9.52;8.35;;;10.30;99.90;;;;;;5030402;28;20033;-65
2022/12/04 03:49:47;;;;;;;10.27;8.65;;;10.00;99.90;;;;;;5032820;28;20038;-65
2022/12/04 03:55:39;;;;;;;10.93;9.18;;;10.00;99.90;;;;;;5019166;28;20079;-65
2022/12/04 03:58:10;;;;;;;10.82;8.70;;;9.80;99.90;;;;;;5030727;28;20405;-65
2022/12/04 04:00:40;;;;;;;14.73;10.07;;;10.00;99.90;;;;;;5032588;28;20034;-65
2022/12/04 04:03:20;;;;;;;14.80;9.88;;;10.20;99.90;;;;;;5032721;28;20025;-66
2022/12/04 04:05:49;;;;;;;10.07;8.20;;;10.30;99.90;;;;;;5015006;28;20454;-65
2022/12/04 04:08:25;;;;;;;9.90;7.55;;;10.30;99.90;;;;;;5011330;28;20037;-65
2022/12/04 04:10:55;;;;;;;9.13;6.85;;;10.40;99.90;;;;;;5009502;28;20104;-65
2022/12/04 04:24:45;;;;;;;8.07;5.97;;;10.10;99.90;;;;;;5029846;28;20056;-64
2022/12/04 04:27:12;;;;;;;6.53;5.38;;;10.10;99.90;;;;;;5023112;28;20117;-64
2022/12/04 04:29:38;;;;;;;6.25;5.60;;;9.70;99.90;;;;;;5026176;28;20042;-64
2022/12/04 04:32:37;;;;;;;8.55;5.40;;;9.80;99.90;;;;;;5021122;28;20031;-64
2022/12/04 04:35:16;;;;;;;8.05;6.22;;;10.10;99.90;;;;;;5017743;28;20056;-64
2022/12/04 04:38:06;;;;;;;7.88;5.80;;;10.00;99.90;;;;;;5032246;28;20083;-65
2022/12/04 04:41:07;;;;;;;6.35;4.55;;;10.30;99.90;;;;;;5001005;28;20034;-65
2022/12/04 04:43:53;;;;;;;8.90;6.60;;;10.10;99.90;;;;;;4997832;28;20041;-65
2022/12/04 04:46:27;;;;;;;8.23;6.00;;;10.20;99.90;;;;;;5031577;28;20037;-65
2022/12/04 04:48:58;;;;;;;8.73;5.57;;;10.00;99.90;;;;;;5005916;28;20040;-65
2022/12/04 04:51:25;;;;;;;7.30;5.82;;;10.20;99.90;;;;;;5031445;28;20045;-65
2022/12/04 04:53:55;;;;;;;9.45;5.97;;;10.30;99.90;;;;;;5027156;28;20030;-65
2022/12/04 04:56:21;;;;;;;12.75;5.78;;;10.40;99.90;;;;;;5024245;28;20022;-65
2022/12/04 04:58:47;;;;;;;7.68;5.65;;;10.30;99.90;;;;;;5026821;28;20076;-65
2022/12/04 05:01:16;;;;;;;6.80;4.60;;;10.20;99.90;;;;;;5020955;28;20079;-65
2022/12/04 05:03:42;;;;;;;5.45;4.78;;;10.00;99.90;;;;;;5031488;28;20026;-64
2022/12/04 05:06:08;;;;;;;7.82;6.00;;;10.10;99.90;;;;;;5001175;28;20388;-65
2022/12/04 05:08:34;;;;;;;9.77;6.45;;;10.10;99.90;;;;;;5023147;28;20511;-65
2022/12/04 05:11:01;;;;;;;4.85;4.32;;;10.20;99.90;;;;;;5031554;28;20041;-65
2022/12/04 05:13:28;;;;;;;7.93;5.78;;;10.00;99.90;;;;;;5031771;28;20099;-65
2022/12/04 05:15:58;;;;;;;5.70;4.80;;;10.30;99.90;;;;;;5012273;28;20030;-65
2022/12/04 05:18:24;;;;;;;8.68;5.32;;;10.40;99.90;;;;;;5023764;28;20080;-65
2022/12/04 05:20:50;;;;;;;5.13;4.53;;;10.30;99.90;;;;;;5028695;28;20045;-65
2022/12/04 05:23:16;;;;;;;3.90;3.50;;;10.40;99.90;;;;;;5016820;28;20405;-65
2022/12/04 05:25:41;;;;;;;5.05;3.65;;;10.40;99.90;;;;;;5026555;28;20083;-65
2022/12/04 05:28:07;;;;;;;4.07;3.50;;;10.30;99.90;;;;;;5031296;28;20097;-65
2022/12/04 05:30:33;;;;;;;3.78;3.15;;;10.50;99.90;;;;;;5031712;28;20097;-65
2022/12/04 05:32:58;;;;;;;5.63;3.75;;;10.50;99.90;;;;;;5030300;28;20075;-65
2022/12/04 05:35:24;;;;;;;6.78;3.25;;;10.60;99.90;;;;;;5031290;28;20028;-65
2022/12/04 05:37:49;;;;;;;4.28;3.08;;;10.40;99.90;;;;;;5031085;28;20092;-65
2022/12/04 05:40:15;;;;;;;2.88;2.28;;;10.50;99.90;;;;;;5019485;28;20047;-65
2022/12/04 05:42:41;;;;;;;2.28;2.08;;;10.40;99.90;;;;;;5013677;28;20046;-64
2022/12/04 05:45:07;;;;;;;2.38;2.15;;;10.40;99.90;;;;;;5007233;28;20105;-64
2022/12/04 05:47:41;;;;;;;5.30;2.80;;;10.00;99.90;;;;;;5025270;28;20049;-65
2022/12/04 05:50:08;;;;;;;3.20;1.48;;;10.20;99.90;;;;;;5016227;28;20041;-65
2022/12/04 05:52:33;;;;;;;2.20;2.00;;;9.90;99.90;;;;;;5019937;28;20104;-65
2022/12/04 05:54:59;;;;;;;3.60;2.28;;;9.80;99.90;;;;;;5028359;28;20033;-65
2022/12/04 05:57:25;;;;;;;5.28;2.92;;;9.90;99.90;;;;;;5031217;28;20033;-64
2022/12/04 05:59:51;;;;;;;2.92;2.60;;;9.70;99.90;;;;;;5031469;28;20021;-65
2022/12/04 06:02:16;;;;;;;2.53;2.30;;;9.70;99.90;;;;;;5031108;28;20040;-65
2022/12/04 06:04:42;;;;;;;4.90;3.42;;;9.70;99.90;;;;;;5031215;28;20032;-65
2022/12/04 06:07:09;;;;;;;9.73;3.97;;;9.80;99.90;;;;;;5029071;28;20053;-65
2022/12/04 06:09:36;;;;;;;7.45;4.35;;;9.70;99.90;;;;;;5013910;28;20138;-65
2022/12/04 06:12:02;;;;;;;4.80;4.30;;;9.80;99.90;;;;;;5034574;28;20030;-65
2022/12/04 06:14:28;;;;;;;3.65;3.35;;;10.00;99.90;;;;;;5034588;28;20029;-65
2022/12/04 06:16:53;;;;;;;5.30;4.05;;;9.90;99.90;;;;;;5034358;28;20109;-65
2022/12/04 06:19:21;;;;;;;10.73;4.85;;;9.90;99.90;;;;;;5033104;28;20025;-65
2022/12/04 06:21:48;;;;;;;4.55;3.63;;;9.90;99.90;;;;;;5022062;28;20550;-65
2022/12/04 06:24:17;;;;;;;7.43;4.90;;;10.10;99.90;;;;;;5031507;28;20052;-65
2022/12/04 06:26:43;;;;;;;6.30;4.30;;;10.20;99.90;;;;;;5034571;28;20021;-65
2022/12/04 06:29:10;;;;;;;6.60;4.65;;;10.30;99.90;;;;;;5034244;28;20037;-65
2022/12/04 06:31:36;;;;;;;6.28;4.03;;;10.30;99.90;;;;;;5032752;28;20021;-65
2022/12/04 06:34:03;;;;;;;8.30;3.88;;;10.30;99.90;;;;;;5031260;28;20400;-65
2022/12/04 06:36:29;;;;;;;4.68;3.17;;;10.30;99.90;;;;;;5034123;28;20025;-65
2022/12/04 06:38:56;;;;;;;5.45;3.53;;;10.30;99.90;;;;;;5034189;28;20380;-65
2022/12/04 06:41:23;;;;;;;7.60;3.85;;;10.10;99.90;;;;;;5032750;28;20444;-66
2022/12/04 06:43:50;;;;;;;6.00;4.20;;;10.00;99.90;;;;;;5032773;28;20056;-65
2022/12/04 06:46:22;;;;;;;6.65;4.50;;;10.20;99.90;;;;;;5034067;28;20048;-65
2022/12/04 06:48:48;;;;;;;6.13;3.20;;;10.20;99.90;;;;;;5032480;28;20134;-66
2022/12/04 06:51:20;;;;;;;4.13;3.50;;;10.10;99.90;;;;;;5033667;28;20131;-65
2022/12/04 06:53:47;;;;;;;5.40;3.55;;;10.00;99.90;;;;;;5034026;28;20079;-65
2022/12/04 06:56:16;;;;;;;8.30;4.35;;;10.10;99.90;;;;;;5033802;28;20025;-65
2022/12/04 06:58:51;;;;;;;9.10;4.97;;;10.30;99.90;;;;;;5028555;28;20052;-65
2022/12/04 07:01:19;;;;;;;6.20;4.10;;;10.30;99.90;;;;;;5033907;28;20037;-65
2022/12/04 07:03:45;;;;;;;6.78;4.22;;;10.40;99.90;;;;;;5033802;28;20026;-65
2022/12/04 07:06:17;;;;;;;2.78;2.58;;;10.40;99.90;;;;;;5033668;28;20025;-65
2022/12/04 07:08:44;;;;;;;5.43;3.88;;;10.40;99.90;;;;;;5018158;28;20041;-65
2022/12/04 07:11:11;;;;;;;7.93;4.47;;;10.20;99.90;;;;;;5033426;28;20090;-65
2022/12/04 07:13:37;;;;;;;12.77;4.00;;;10.30;99.90;;;;;;5023258;28;20514;-65
2022/12/04 07:16:06;;;;;;;7.88;3.80;;;10.20;99.90;;;;;;5033523;28;20116;-65
2022/12/04 07:18:33;;;;;;;7.63;4.80;;;10.30;99.90;;;;;;5033178;28;20105;-65
2022/12/04 07:20:58;;;;;;;4.15;3.55;;;10.30;99.90;;;;;;5028943;28;20523;-65
2022/12/04 07:23:24;;;;;;;4.20;3.80;;;10.40;99.90;;;;;;5023472;28;20049;-65
2022/12/04 07:25:50;;;;;;;4.88;3.42;;;10.40;99.90;;;;;;5025506;28;20108;-65
2022/12/04 07:28:15;;;;;;;5.97;4.25;;;10.30;99.90;;;;;;5033056;28;20037;-65
2022/12/04 07:30:41;;;;;;;6.13;3.83;;;9.90;99.90;;;;;;5032981;28;20471;-65
2022/12/04 07:33:07;;;;;;;6.13;4.28;;;10.00;99.90;;;;;;5033276;28;20028;-65
2022/12/04 07:35:54;;;;;;;8.27;5.88;;;9.90;99.90;;;;;;5033164;28;20022;-66
2022/12/04 07:38:20;;;;;;;8.15;6.00;;;10.00;99.90;;;;;;5033346;28;20383;-65
2022/12/04 07:40:45;;;;;;;7.10;5.53;;;10.10;99.90;;;;;;5020546;28;20026;-65
2022/12/04 07:43:11;;;;;;;9.48;5.30;;;10.00;99.90;;;;;;5031778;28;20375;-66
2022/12/04 07:45:36;;;;;;;4.32;3.83;;;10.10;99.90;;;;;;5031788;28;20033;-65
2022/12/04 07:48:02;;;;;;;6.90;5.32;;;10.00;99.90;;;;;;5032284;28;20025;-65
2022/12/04 07:50:28;;;;;;;7.25;5.05;;;10.10;99.90;;;;;;5032760;28;20033;-65
2022/12/04 07:52:53;;;;;;;6.55;5.60;;;10.00;99.90;;;;;;5027136;28;20125;-65
2022/12/04 07:55:19;;;;;;;9.25;5.80;;;10.10;99.90;;;;;;5028988;28;20022;-66
2022/12/04 07:57:44;;;;;;;9.57;6.32;;;10.00;99.90;;;;;;5032667;28;20029;-66
2022/12/04 08:00:11;;;;;;;7.43;5.18;;;10.10;99.90;;;;;;5032553;28;20446;-66
2022/12/04 08:02:36;;;;;;;9.85;7.25;;;9.90;99.90;;;;;;5030283;28;20035;-66
2022/12/04 08:05:02;;;;;;;7.65;5.40;;;9.90;99.90;;;;;;5029205;28;20096;-66
2022/12/04 08:07:27;;;;;;;11.02;7.47;;;9.90;99.90;;;;;;5032605;28;20470;-66
2022/12/04 08:09:53;;;;;;;9.57;6.93;;;10.00;99.90;;;;;;5032478;28;20421;-66
2022/12/04 08:12:19;;;;;;;9.40;5.95;;;10.00;99.90;;;;;;5032354;28;20157;-66
2022/12/04 08:14:44;;;;;;;9.18;6.80;;;10.00;99.90;;;;;;5030533;28;20068;-65
2022/12/04 08:17:10;;;;;;;7.90;6.13;;;9.50;99.90;;;;;;5031952;28;20020;-66
2022/12/04 08:19:35;;;;;;;6.50;5.00;;;9.60;99.90;;;;;;5021509;28;20088;-66
2022/12/04 08:22:01;;;;;;;7.45;5.55;;;9.50;99.90;;;;;;5012441;28;20030;-66
2022/12/04 08:24:26;;;;;;;8.43;6.38;;;9.50;99.90;;;;;;5026438;28;20032;-66
2022/12/04 08:26:52;;;;;;;25.60;6.70;;;9.70;99.90;;;;;;5017934;28;20033;-66
2022/12/04 08:29:18;;;;;;;6.68;5.88;;;9.70;99.90;;;;;;5032014;28;20051;-66
2022/12/04 08:31:43;;;;;;;8.43;7.40;;;9.50;99.90;;;;;;5032142;28;20040;-66
2022/12/04 08:34:09;;;;;;;11.07;6.50;;;9.60;99.90;;;;;;5027462;28;20044;-66
2022/12/04 08:36:35;;;;;;;8.75;6.65;;;9.60;99.90;;;;;;5024724;28;20139;-66
2022/12/04 08:39:00;;;;;;;9.02;7.18;;;9.60;99.90;;;;;;5031856;28;20029;-66
2022/12/04 08:41:26;;;;;;;13.20;8.32;;;9.80;99.90;;;;;;5031985;28;20057;-66
2022/12/04 08:43:54;;;;;;;9.57;7.50;;;9.90;99.90;;;;;;5027566;28;20030;-66
2022/12/04 08:46:20;;;;;;;11.13;8.05;;;9.80;99.90;;;;;;5012942;28;20093;-66
2022/12/04 08:48:46;;;;;;;11.68;8.55;;;9.80;99.90;;;;;;5010128;28;20040;-65
2022/12/04 08:51:21;;;;;;;9.38;7.13;;;10.00;99.90;;;;;;5009531;28;20463;-65
2022/12/04 08:53:47;;;;;;;12.82;9.20;;;10.10;99.90;;;;;;5011577;28;20030;-65
2022/12/04 08:56:13;;;;;;;15.48;10.40;;;10.00;99.90;;;;;;5011610;28;20030;-64
2022/12/04 08:58:39;;;;;;;11.45;8.63;;;10.00;99.90;;;;;;5012635;28;20104;-64
2022/12/04 09:01:07;;;;;;;8.27;7.47;;;9.90;99.90;;;;;;5010641;28;20426;-64
2022/12/04 09:03:33;;;;;;;16.70;8.73;;;9.70;99.90;;;;;;5010381;28;20029;-64
2022/12/04 09:06:00;;;;;;;14.50;10.55;;;9.80;99.90;;;;;;5011536;28;20088;-65
2022/12/04 09:08:26;;;;;;;13.15;9.75;;;9.80;99.90;;;;;;5030938;28;20040;-65
2022/12/04 09:10:51;;;;;;;13.65;10.73;;;9.80;99.90;;;;;;5031575;28;20025;-65
2022/12/04 09:13:17;;;;;;;18.40;13.05;;;10.00;99.90;;;;;;5028299;28;20076;-65
2022/12/04 09:15:42;;;;;;;13.50;11.25;;;10.10;99.90;;;;;;5011895;28;20026;-65
2022/12/04 09:18:09;;;;;;;15.90;12.77;;;10.10;99.90;;;;;;5011513;28;20041;-64
2022/12/04 09:20:34;;;;;;;11.93;9.77;;;10.20;99.90;;;;;;5009555;28;20026;-65
2022/12/04 09:23:00;;;;;;;19.45;13.88;;;9.90;99.90;;;;;;5023783;28;20465;-66
2022/12/04 09:25:26;;;;;;;26.23;18.55;;;10.00;99.90;;;;;;5031675;28;20104;-64
2022/12/04 09:27:52;;;;;;;21.08;15.90;;;10.80;99.90;;;;;;5031300;28;20486;-65
2022/12/04 09:30:17;;;;;;;18.98;15.10;;;10.70;99.90;;;;;;5014995;28;20161;-65
2022/12/04 09:32:43;;;;;;;27.30;18.92;;;10.80;99.90;;;;;;5011350;28;20026;-65
2022/12/04 09:35:09;;;;;;;34.30;21.67;;;10.70;99.90;;;;;;5026068;28;20033;-65
2022/12/04 09:37:38;;;;;;;30.05;20.60;;;10.70;99.90;;;;;;5031356;28;20021;-65
2022/12/04 09:40:06;;;;;;;33.00;21.65;;;10.80;99.90;;;;;;5031451;28;20033;-65
2022/12/04 09:43:11;;;;;;;32.92;21.58;;;10.90;99.90;;;;;;5031161;28;20539;-65
2022/12/04 09:45:47;;;;;;;19.75;15.68;;;10.60;99.90;;;;;;5029471;28;20029;-66
2022/12/04 09:48:16;;;;;;;29.70;19.55;;;10.60;99.90;;;;;;5025544;28;20175;-65
2022/12/04 09:50:44;;;;;;;17.77;14.55;;;10.60;99.90;;;;;;5035171;28;20033;-66
2022/12/04 09:53:28;;;;;;;25.75;17.85;;;10.40;99.90;;;;;;5035225;28;20120;-65
2022/12/04 09:55:58;;;;;;;27.52;19.23;;;10.40;99.90;;;;;;5035391;28;20044;-65
2022/12/04 09:58:45;;;;;;;32.75;22.20;;;10.50;99.90;;;;;;5034918;28;20041;-68
2022/12/04 10:01:26;;;;;;;26.77;19.42;;;10.60;99.90;;;;;;5031339;28;20426;-68
2022/12/04 10:03:53;;;;;;;31.77;22.75;;;10.30;99.90;;;;;;5023133;28;20034;-68
2022/12/04 10:06:24;;;;;;;34.15;23.73;;;10.50;99.90;;;;;;5014964;28;20427;-67
2022/12/04 10:08:58;;;;;;;25.90;20.60;;;10.30;99.90;;;;;;5017223;28;20038;-68
2022/12/04 10:11:33;;;;;;;;;;;10.30;99.90;;;;;;5027630;28;20026;-68
2022/12/04 10:14:28;;;;;;;30.45;22.58;;;10.40;99.90;;;;;;5026002;28;19905;-68
2022/12/04 10:17:18;;;;;;;33.95;24.33;;;10.30;99.90;;;;;;5005843;28;20386;-68
2022/12/04 10:19:54;;;;;;;36.03;25.45;;;10.20;99.90;;;;;;5034985;28;20032;-68
2022/12/04 10:22:55;;;;;;;40.42;25.88;;;10.30;99.90;;;;;;5034918;28;20083;-68
2022/12/04 10:25:23;;;;;;;26.10;21.27;;;10.40;99.90;;;;;;5008653;28;20108;-68
2022/12/04 10:28:38;;;;;;;32.85;25.27;;;10.00;99.90;;;;;;5027120;28;20037;-68
2022/12/04 10:31:09;;;;;;;26.38;21.15;;;10.30;99.90;;;;;;5015498;28;20069;-68
2022/12/04 10:33:55;;;;;;;38.95;26.48;;;10.30;99.90;;;;;;5034007;28;20572;-69
2022/12/04 10:36:24;;;;;;;31.52;23.00;;;10.50;99.90;;;;;;5034237;28;20059;-69
2022/12/04 10:38:57;;;;;;;27.25;20.05;;;10.30;99.90;;;;;;5006682;28;20482;-69
2022/12/04 10:41:37;;;;;;;29.92;20.75;;;10.30;99.90;;;;;;5033107;28;20025;-68
2022/12/04 10:44:03;;;;;;;34.55;23.75;;;10.30;99.90;;;;;;5008750;28;20033;-68
2022/12/04 10:46:32;;;;;;;23.58;18.90;;;10.50;99.90;;;;;;5034060;28;20119;-68
2022/12/04 10:48:58;;;;;;;23.13;17.88;;;10.30;99.90;;;;;;5034128;28;20459;-68
2022/12/04 10:51:23;;;;;;;18.10;15.88;;;10.50;99.90;;;;;;5033783;28;20081;-68
2022/12/04 10:53:49;;;;;;;18.20;15.20;;;10.50;99.90;;;;;;5025223;28;20503;-68
2022/12/04 10:56:19;;;;;;;14.80;12.15;;;10.50;99.90;;;;;;5027500;28;20026;-68
2022/12/04 10:58:58;;;;;;;15.25;12.48;;;10.30;99.90;;;;;;5034010;28;20472;-68
2022/12/04 11:01:25;;;;;;;15.63;12.45;;;10.20;99.90;;;;;;5029022;28;20018;-68
2022/12/04 11:04:06;;;;;;;16.48;13.35;;;10.30;99.90;;;;;;5024856;28;20028;-68
2022/12/04 11:06:33;;;;;;;13.98;11.73;;;10.40;99.90;;;;;;5030419;28;20025;-68
2022/12/04 11:12:22;;;;;;;15.02;12.60;;;10.70;99.90;;;;;;4999413;28;20507;-67
2022/12/04 11:15:10;;;;;;;16.73;12.80;;;10.60;99.90;;;;;;5027752;28;20452;-67
2022/12/04 11:17:36;;;;;;;13.43;11.93;;;10.60;99.90;;;;;;5033332;28;20472;-68
2022/12/04 11:20:12;;;;;;;18.13;14.10;;;10.50;99.90;;;;;;5019077;28;20025;-68
2022/12/04 11:22:55;;;;;;;16.40;13.95;;;10.70;99.90;;;;;;5033580;28;20029;-68
2022/12/04 11:25:23;;;;;;;18.30;14.65;;;10.50;99.90;;;;;;5032916;28;20056;-68
2022/12/04 11:27:53;;;;;;;14.57;12.85;;;10.50;99.90;;;;;;5033139;28;20175;-67
2022/12/04 11:30:31;;;;;;;17.10;14.48;;;10.60;99.90;;;;;;5014621;28;20042;-67
2022/12/04 11:32:58;;;;;;;13.80;12.38;;;10.50;99.90;;;;;;5025958;28;20108;-68
2022/12/04 11:35:26;;;;;;;17.05;13.93;;;10.40;99.90;;;;;;5033150;28;20022;-68
2022/12/04 11:37:56;;;;;;;19.55;15.38;;;10.50;99.90;;;;;;5032973;28;20053;-68
2022/12/04 11:40:24;;;;;;;22.80;17.35;;;10.70;99.90;;;;;;5022027;28;20028;-69
2022/12/04 11:43:02;;;;;;;17.58;15.50;;;10.70;99.90;;;;;;5021450;28;20457;-69
2022/12/04 11:45:29;;;;;;;21.90;17.27;;;10.30;99.90;;;;;;5012189;28;20029;-68
2022/12/04 11:47:58;;;;;;;17.75;14.50;;;10.60;99.90;;;;;;5021760;28;20447;-69
2022/12/04 11:50:38;;;;;;;20.50;15.35;;;10.30;99.90;;;;;;5006990;28;20083;-64
2022/12/04 11:56:42;;;;;;;15.85;13.88;;;10.10;99.90;;;;;;5014606;28;20255;-65
2022/12/04 11:59:26;;;;;;;14.75;13.15;;;10.30;99.90;;;;;;5005746;28;20022;-66
2022/12/04 12:02:26;;;;;;;17.92;14.88;;;10.00;99.90;;;;;;5009348;28;20032;-66
2022/12/04 12:08:36;;;;;;;18.52;13.82;;;10.40;99.90;;;;;;4935817;28;20048;-64
2022/12/04 12:11:01;;;;;;;16.42;13.18;;;10.30;99.90;;;;;;5011694;28;20332;-64
2022/12/04 12:13:33;;;;;;;16.10;13.95;;;10.30;99.90;;;;;;5007353;28;20034;-64
2022/12/04 12:16:39;;;;;;;19.88;15.55;;;10.50;99.90;;;;;;5010671;28;20034;-65
2022/12/04 12:19:14;;;;;;;21.23;16.27;;;10.40;99.90;;;;;;5020464;28;20038;-65
2022/12/04 12:22:01;;;;;;;17.15;14.82;;;10.70;99.90;;;;;;5009529;28;20030;-64
2022/12/04 12:24:32;;;;;;;20.15;16.00;;;10.70;99.90;;;;;;5011708;28;20026;-64
2022/12/04 12:27:16;;;;;;;16.70;14.27;;;10.60;99.90;;;;;;5003035;28;20121;-64
2022/12/04 12:30:08;;;;;;;15.30;12.95;;;10.60;99.90;;;;;;5026660;28;20451;-64
2022/12/04 12:32:36;;;;;;;13.95;12.30;;;10.50;99.90;;;;;;5019998;28;20018;-63
2022/12/04 12:35:12;;;;;;;18.95;15.60;;;10.60;99.90;;;;;;5008099;28;20112;-63
2022/12/04 12:37:48;;;;;;;14.85;13.10;;;10.60;99.90;;;;;;5009515;28;20022;-63
2022/12/04 12:40:35;;;;;;;15.40;13.63;;;10.50;99.90;;;;;;5014357;28;20113;-63
2022/12/04 12:43:25;;;;;;;17.33;15.50;;;10.50;99.90;;;;;;5017151;28;20026;-63
2022/12/04 12:45:53;;;;;;;16.77;14.18;;;10.40;99.90;;;;;;5001811;28;20030;-63
2022/12/04 12:48:21;;;;;;;15.77;14.18;;;10.40;99.90;;;;;;5008013;28;20451;-63
2022/12/04 12:50:51;;;;;;;17.38;14.55;;;10.60;99.90;;;;;;5018637;28;20535;-63
2022/12/04 12:53:25;;;;;;;17.92;15.38;;;10.80;99.90;;;;;;5015604;28;20048;-63
2022/12/04 12:55:57;;;;;;;21.00;17.07;;;10.90;99.90;;;;;;5002755;28;20048;-63
2022/12/04 12:58:44;;;;;;;16.65;14.88;;;10.80;99.90;;;;;;5012077;28;20281;-63
2022/12/04 13:01:42;;;;;;;19.50;15.43;;;10.80;99.90;;;;;;5007580;28;20029;-63
2022/12/04 13:04:22;;;;;;;16.83;15.07;;;10.80;99.90;;;;;;5002897;28;20081;-63
2022/12/04 13:07:05;;;;;;;17.08;15.25;;;10.50;99.90;;;;;;5009281;28;20065;-65
2022/12/04 13:09:36;;;;;;;16.65;14.68;;;10.20;99.90;;;;;;4998875;28;20038;-69
2022/12/04 13:12:09;;;;;;;18.73;16.25;;;10.40;99.90;;;;;;5000184;28;20027;-69
2022/12/04 13:14:35;;;;;;;18.63;16.67;;;10.60;99.90;;;;;;5008257;28;20510;-69
2022/12/04 13:17:24;;;;;;;19.77;17.67;;;10.70;99.90;;;;;;5021686;28;20027;-69
2022/12/04 13:19:53;;;;;;;19.30;17.00;;;10.70;99.90;;;;;;5000829;28;20049;-68
2022/12/04 13:22:36;;;;;;;19.70;17.58;;;10.60;99.90;;;;;;5012624;28;20044;-69
2022/12/04 13:25:30;;;;;;;20.70;17.92;;;10.70;99.90;;;;;;5018741;28;20030;-69
2022/12/04 13:28:35;;;;;;;19.02;16.27;;;10.70;99.90;;;;;;5017445;28;20027;-68
2022/12/04 13:31:17;;;;;;;16.05;14.38;;;10.70;99.90;;;;;;5000758;28;20065;-68
2022/12/04 13:34:08;;;;;;;17.67;15.75;;;10.90;99.90;;;;;;4992733;28;20101;-68
2022/12/04 13:37:15;;;;;;;20.80;17.67;;;10.90;99.90;;;;;;5021179;28;20042;-68
2022/12/04 13:39:49;;;;;;;18.83;16.92;;;10.90;99.90;;;;;;5011462;28;20113;-69
2022/12/04 13:42:22;;;;;;;18.23;16.33;;;10.80;99.90;;;;;;5026890;28;20030;-68
2022/12/04 13:44:54;;;;;;;19.48;17.40;;;10.90;99.90;;;;;;5019807;28;20118;-69